createdAt,value
2018-07-15T00:02:10.336Z,98091.00
2018-07-15T00:06:12.568Z,98091.00
2018-07-15T00:10:14.767Z,98085.00
2018-07-15T00:14:16.937Z,98090.00
2018-07-15T00:18:19.118Z,98081.00
2018-07-15T00:22:21.310Z,98084.00
2018-07-15T00:26:23.500Z,98076.00
2018-07-15T00:30:25.811Z,98067.00
2018-07-15T00:34:28.623Z,98073.00
2018-07-15T00:38:30.791Z,98085.00
2018-07-15T00:42:32.958Z,98085.00
2018-07-15T00:46:35.135Z,98076.00
2018-07-15T00:50:37.307Z,98079.00
2018-07-15T00:54:39.456Z,98080.00
2018-07-15T00:58:41.591Z,98080.00
2018-07-15T01:02:43.767Z,98073.00
2018-07-15T01:06:46.019Z,98075.00
2018-07-15T01:10:48.810Z,98079.00
2018-07-15T01:14:50.976Z,98071.00
2018-07-15T01:18:53.166Z,98070.00
2018-07-15T01:22:55.353Z,98067.00
2018-07-15T01:26:57.540Z,98065.00
2018-07-15T01:30:59.779Z,98066.00
2018-07-15T01:35:02.076Z,98061.00
2018-07-15T01:39:04.941Z,98049.00
2018-07-15T01:43:07.230Z,98057.00
2018-07-15T01:47:09.392Z,98051.00
2018-07-15T01:51:11.631Z,98046.00
2018-07-15T01:55:13.920Z,98045.00
2018-07-15T01:59:16.108Z,98046.00
2018-07-15T02:03:18.351Z,98045.00
2018-07-15T02:07:20.545Z,98046.00
2018-07-15T02:11:22.761Z,98043.00
2018-07-15T02:15:25.173Z,98041.00
2018-07-15T02:19:27.370Z,98042.00
2018-07-15T02:23:29.614Z,98044.00
2018-07-15T02:27:32.111Z,98040.00
2018-07-15T02:31:34.271Z,98048.00
2018-07-15T02:35:36.440Z,98038.00
2018-07-15T02:39:38.601Z,98043.00
2018-07-15T02:43:40.908Z,98029.00
2018-07-15T02:47:43.106Z,98036.00
2018-07-15T02:51:45.293Z,98024.00
2018-07-15T02:55:48.037Z,98024.00
2018-07-15T02:59:50.339Z,98031.00
2018-07-15T03:03:52.555Z,98032.00
2018-07-15T03:07:54.825Z,98023.00
2018-07-15T03:11:57.002Z,98023.00
2018-07-15T03:15:59.167Z,98016.00
2018-07-15T03:20:01.312Z,98010.00
2018-07-15T03:24:03.459Z,98005.00
2018-07-15T03:28:05.668Z,98017.00
2018-07-15T03:32:07.807Z,98009.00
2018-07-15T03:36:10.078Z,98012.00
2018-07-15T03:40:12.243Z,98012.00
2018-07-15T03:44:14.453Z,98009.00
2018-07-15T03:48:16.622Z,98000.00
2018-07-15T03:52:18.900Z,98008.00
2018-07-15T03:56:21.061Z,98005.00
2018-07-15T04:00:23.288Z,98004.00
2018-07-15T04:04:25.415Z,98002.00
2018-07-15T04:08:28.000Z,97999.00
2018-07-15T04:12:30.272Z,98000.00
2018-07-15T04:16:32.459Z,97998.00
2018-07-15T04:20:35.729Z,98003.00
2018-07-15T04:24:37.871Z,98003.00
2018-07-15T04:28:40.034Z,98006.00
2018-07-15T04:32:42.643Z,98003.00
2018-07-15T04:36:44.788Z,98000.00
2018-07-15T04:40:46.939Z,97999.00
2018-07-15T04:44:49.108Z,97996.00
2018-07-15T04:48:51.555Z,97997.00
2018-07-15T04:52:53.779Z,97988.00
2018-07-15T04:56:55.935Z,97988.00
2018-07-15T05:00:58.363Z,97986.00
2018-07-15T05:05:00.503Z,97989.00
2018-07-15T05:09:02.851Z,97992.00
2018-07-15T05:13:05.012Z,97985.00
2018-07-15T05:17:07.152Z,97990.00
2018-07-15T05:21:09.531Z,97995.00
2018-07-15T05:25:12.828Z,97995.00
2018-07-15T05:29:15.004Z,97996.00
2018-07-15T05:33:17.196Z,97992.00
2018-07-15T05:37:19.388Z,97991.00
2018-07-15T05:41:21.578Z,97989.00
2018-07-15T05:45:23.973Z,97997.00
2018-07-15T05:49:26.223Z,98000.00
2018-07-15T05:53:29.068Z,98000.00
2018-07-15T05:57:31.256Z,98001.00
2018-07-15T06:01:33.470Z,98007.00
2018-07-15T06:05:35.614Z,98005.00
2018-07-15T06:09:37.771Z,98016.00
2018-07-15T06:13:40.347Z,98018.00
2018-07-15T06:17:42.548Z,98017.00
2018-07-15T06:21:44.898Z,98022.00
2018-07-15T06:25:47.037Z,98035.00
2018-07-15T06:29:49.295Z,98028.00
2018-07-15T06:33:51.626Z,98025.00
2018-07-15T06:37:53.805Z,98025.00
2018-07-15T06:41:56.016Z,98030.00
2018-07-15T06:45:58.241Z,98032.00
2018-07-15T06:50:00.740Z,98029.00
2018-07-15T06:54:03.026Z,98017.00
2018-07-15T06:58:05.162Z,98021.00
2018-07-15T07:02:07.335Z,98026.00
2018-07-15T07:06:09.502Z,98027.00
2018-07-15T07:10:11.726Z,98025.00
2018-07-15T07:14:14.090Z,98028.00
2018-07-15T07:18:16.255Z,98024.00
2018-07-15T07:22:18.719Z,98030.00
2018-07-15T07:26:21.359Z,98026.00
2018-07-15T07:30:23.563Z,98027.00
2018-07-15T07:34:25.729Z,98023.00
2018-07-15T07:38:27.927Z,98023.00
2018-07-15T07:42:30.090Z,98022.00
2018-07-15T07:46:32.375Z,98021.00
2018-07-15T07:50:34.944Z,98022.00
2018-07-15T07:54:37.267Z,98023.00
2018-07-15T07:58:39.440Z,98015.00
2018-07-15T08:02:41.636Z,98013.00
2018-07-15T08:06:43.816Z,98010.00
2018-07-15T08:10:46.024Z,98011.00
2018-07-15T08:14:48.211Z,98014.00
2018-07-15T08:18:50.442Z,98013.00
2018-07-15T08:22:53.280Z,98022.00
2018-07-15T08:26:55.483Z,98012.00
2018-07-15T08:31:09.386Z,98013.00
2018-07-15T08:35:11.595Z,98014.00
2018-07-15T08:39:13.793Z,98012.00
2018-07-15T08:43:15.995Z,98016.00
2018-07-15T08:47:18.296Z,98007.00
2018-07-15T08:51:20.494Z,98006.00
2018-07-15T08:55:22.654Z,98002.00
2018-07-15T08:59:24.791Z,97998.00
2018-07-15T09:03:27.024Z,97999.00
2018-07-15T09:07:29.227Z,97998.00
2018-07-15T09:11:31.394Z,97990.00
2018-07-15T09:15:33.546Z,97992.00
2018-07-15T09:19:35.703Z,97995.00
2018-07-15T09:23:37.863Z,97992.00
2018-07-15T09:27:40.046Z,97982.00
2018-07-15T09:31:42.246Z,97984.00
2018-07-15T09:35:44.429Z,97988.00
2018-07-15T09:39:46.560Z,97989.00
2018-07-15T09:43:48.724Z,97985.00
2018-07-15T09:47:50.885Z,97988.00
2018-07-15T09:51:53.112Z,97985.00
2018-07-15T09:55:55.279Z,97986.00
2018-07-15T09:59:57.469Z,97984.00
2018-07-15T10:03:59.750Z,97985.00
2018-07-15T10:08:01.936Z,97979.00
2018-07-15T10:12:04.159Z,97986.00
2018-07-15T10:16:06.338Z,97985.00
2018-07-15T10:20:09.371Z,97976.00
2018-07-15T10:24:11.563Z,97969.00
2018-07-15T10:28:13.775Z,97973.00
2018-07-15T10:32:15.955Z,97965.00
2018-07-15T10:36:18.099Z,97969.00
2018-07-15T10:40:20.373Z,97958.00
2018-07-15T10:44:22.539Z,97956.00
2018-07-15T10:48:24.699Z,97950.00
2018-07-15T10:52:26.852Z,97952.00
2018-07-15T10:56:29.029Z,97950.00
2018-07-15T11:00:31.280Z,97946.00
2018-07-15T11:04:34.107Z,97933.00
2018-07-15T11:08:36.438Z,97929.00
2018-07-15T11:12:38.599Z,97927.00
2018-07-15T11:16:40.875Z,97915.00
2018-07-15T11:20:42.947Z,97919.00
2018-07-15T11:24:45.095Z,97912.00
2018-07-15T11:28:47.254Z,97908.00
2018-07-15T11:32:49.403Z,97913.00
2018-07-15T11:36:51.643Z,97903.00
2018-07-15T11:40:53.927Z,97896.00
2018-07-15T11:44:56.090Z,97895.00
2018-07-15T11:48:58.437Z,97899.00
2018-07-15T11:53:00.644Z,97901.00
2018-07-15T11:57:02.826Z,97906.00
2018-07-15T12:01:05.608Z,97897.00
2018-07-15T12:05:08.004Z,97894.00
2018-07-15T12:09:10.184Z,97884.00
2018-07-15T12:13:12.408Z,97893.00
2018-07-15T12:17:14.588Z,97877.00
2018-07-15T12:21:16.808Z,97873.00
2018-07-15T12:25:18.980Z,97879.00
2018-07-15T12:29:21.127Z,97874.00
2018-07-15T12:33:24.199Z,97878.00
2018-07-15T12:37:26.448Z,97872.00
2018-07-15T12:41:28.648Z,97872.00
2018-07-15T12:45:30.849Z,97865.00
2018-07-15T12:49:33.027Z,97860.00
2018-07-15T12:53:35.235Z,97846.00
2018-07-15T12:57:37.395Z,97839.00
2018-07-15T13:01:39.588Z,97841.00
2018-07-15T13:05:41.824Z,97828.00
2018-07-15T13:09:43.976Z,97828.00
2018-07-15T13:13:46.142Z,97827.00
2018-07-15T13:17:48.319Z,97823.00
2018-07-15T13:23:20.065Z,97810.00
2018-07-15T13:27:22.255Z,97802.00
2018-07-15T13:31:24.447Z,97815.00
2018-07-15T13:35:26.661Z,97810.00
2018-07-15T13:39:28.889Z,97799.00
2018-07-15T13:43:31.088Z,97797.00
2018-07-15T13:47:33.280Z,97796.00
2018-07-15T13:51:35.487Z,97793.00
2018-07-15T13:55:37.649Z,97788.00
2018-07-15T13:59:39.831Z,97789.00
2018-07-15T14:03:42.059Z,97789.00
2018-07-15T14:07:44.256Z,97791.00
2018-07-15T14:11:46.415Z,97783.00
2018-07-15T14:15:48.623Z,97789.00
2018-07-15T14:19:50.764Z,97788.00
2018-07-15T14:23:52.986Z,97784.00
2018-07-15T14:27:55.195Z,97779.00
2018-07-15T14:31:57.426Z,97773.00
2018-07-15T14:35:59.606Z,97774.00
2018-07-15T14:40:01.816Z,97754.00
2018-07-15T14:44:03.970Z,97755.00
2018-07-15T14:48:06.165Z,97758.00
2018-07-15T14:52:08.355Z,97765.00
2018-07-15T14:56:10.637Z,97761.00
2018-07-15T15:00:13.429Z,97760.00
2018-07-15T15:04:15.591Z,97762.00
2018-07-15T15:08:17.812Z,97762.00
2018-07-15T15:12:20.020Z,97750.00
2018-07-15T15:16:22.201Z,97753.00
2018-07-15T15:20:24.367Z,97753.00
2018-07-15T15:24:26.553Z,97747.00
2018-07-15T15:28:28.751Z,97743.00
2018-07-15T15:32:30.924Z,97749.00
2018-07-15T15:36:33.125Z,97752.00
2018-07-15T15:40:35.288Z,97759.00
2018-07-15T15:44:37.466Z,97751.00
2018-07-15T15:48:39.751Z,97753.00
2018-07-15T15:52:42.012Z,97757.00
2018-07-15T15:56:44.217Z,97767.00
2018-07-15T16:00:46.443Z,97757.00
2018-07-15T16:04:48.659Z,97756.00
2018-07-15T16:08:50.879Z,97758.00
2018-07-15T16:12:53.136Z,97751.00
2018-07-15T16:16:55.391Z,97753.00
2018-07-15T16:20:57.585Z,97749.00
2018-07-15T16:24:59.897Z,97742.00
2018-07-15T16:29:02.079Z,97741.00
2018-07-15T16:33:04.738Z,97738.00
2018-07-15T16:37:06.667Z,97737.00
2018-07-15T16:41:08.851Z,97742.00
2018-07-15T16:45:11.079Z,97747.00
2018-07-15T16:49:13.271Z,97746.00
2018-07-15T16:53:15.413Z,97745.00
2018-07-15T16:57:17.696Z,97746.00
2018-07-15T17:01:19.913Z,97739.00
2018-07-15T17:05:22.118Z,97738.00
2018-07-15T17:09:24.258Z,97731.00
2018-07-15T17:13:26.439Z,97730.00
2018-07-15T17:17:28.691Z,97729.00
2018-07-15T17:21:30.857Z,97730.00
2018-07-15T17:25:33.026Z,97724.00
2018-07-15T17:29:35.999Z,97728.00
2018-07-15T17:33:38.238Z,97723.00
2018-07-15T17:37:40.432Z,97725.00
2018-07-15T17:41:42.627Z,97721.00
2018-07-15T17:45:44.983Z,97732.00
2018-07-15T17:49:47.476Z,97729.00
2018-07-15T17:55:19.161Z,97730.00
2018-07-15T17:59:21.347Z,97738.00
2018-07-15T18:03:23.541Z,97748.00
2018-07-15T18:07:25.746Z,97773.00
2018-07-15T18:11:27.947Z,97784.00
2018-07-15T18:15:30.117Z,97779.00
2018-07-15T18:19:32.321Z,97773.00
2018-07-15T18:23:34.710Z,97768.00
2018-07-15T18:27:36.880Z,97766.00
2018-07-15T18:31:39.067Z,97761.00
2018-07-15T18:35:41.260Z,97772.00
2018-07-15T18:39:43.709Z,97766.00
2018-07-15T18:43:46.435Z,97770.00
2018-07-15T18:47:49.211Z,97767.00
2018-07-15T18:51:51.440Z,97766.00
2018-07-15T18:55:53.637Z,97766.00
2018-07-15T18:59:55.872Z,97765.00
2018-07-15T19:03:58.086Z,97767.00
2018-07-15T19:08:00.310Z,97762.00
2018-07-15T19:12:02.457Z,97765.00
2018-07-15T19:16:04.812Z,97773.00
2018-07-15T19:20:07.063Z,97774.00
2018-07-15T19:24:09.243Z,97778.00
2018-07-15T19:28:11.605Z,97787.00
2018-07-15T19:32:13.791Z,97783.00
2018-07-15T19:36:16.058Z,97795.00
2018-07-15T19:40:18.294Z,97797.00
2018-07-15T19:44:20.599Z,97788.00
2018-07-15T19:48:22.899Z,97794.00
2018-07-15T19:52:25.166Z,97793.00
2018-07-15T19:56:27.299Z,97802.00
2018-07-15T20:00:29.548Z,97808.00
2018-07-15T20:04:31.837Z,97811.00
2018-07-15T20:08:34.134Z,97805.00
2018-07-15T20:12:36.396Z,97814.00
2018-07-15T20:16:38.569Z,97805.00
2018-07-15T20:20:40.741Z,97812.00
2018-07-15T20:24:43.101Z,97805.00
2018-07-15T20:28:45.377Z,97803.00
2018-07-15T20:32:47.727Z,97811.00
2018-07-15T20:36:49.927Z,97809.00
2018-07-15T20:40:52.177Z,97808.00
2018-07-15T20:44:54.364Z,97815.00
2018-07-15T20:48:56.540Z,97802.00
2018-07-15T20:52:58.735Z,97797.00
2018-07-15T20:57:00.949Z,97804.00
2018-07-15T21:01:03.536Z,97803.00
2018-07-15T21:05:05.705Z,97803.00
2018-07-15T21:09:07.869Z,97803.00
2018-07-15T21:13:10.067Z,97812.00
2018-07-15T21:17:12.260Z,97807.00
2018-07-15T21:21:14.452Z,97809.00
2018-07-15T21:25:16.779Z,97806.00
2018-07-15T21:29:18.972Z,97810.00
2018-07-15T21:33:21.131Z,97808.00
2018-07-15T21:37:24.315Z,97807.00
2018-07-15T21:41:26.553Z,97808.00
2018-07-15T21:45:29.146Z,97817.00
2018-07-15T21:49:31.494Z,97814.00
2018-07-15T21:53:33.681Z,97814.00
2018-07-15T21:57:35.946Z,97816.00
2018-07-15T22:01:39.798Z,97816.00
2018-07-15T22:05:41.989Z,97813.00
2018-07-15T22:10:00.745Z,97819.00
2018-07-15T22:14:02.910Z,97818.00
2018-07-15T22:18:05.305Z,97818.00
2018-07-15T22:22:07.769Z,97821.00
2018-07-15T22:26:09.916Z,97825.00
2018-07-15T22:30:12.103Z,97835.00
2018-07-15T22:34:14.347Z,97833.00
2018-07-15T22:38:16.612Z,97838.00
2018-07-15T22:42:18.787Z,97837.00
2018-07-15T22:46:20.965Z,97835.00
2018-07-15T22:50:23.199Z,97828.00
2018-07-15T22:54:25.436Z,97824.00
2018-07-15T22:58:27.667Z,97820.00
2018-07-15T23:02:29.945Z,97819.00
2018-07-15T23:06:33.521Z,97822.00
2018-07-15T23:10:35.758Z,97825.00
2018-07-15T23:14:37.957Z,97820.00
2018-07-15T23:18:40.127Z,97817.00
2018-07-15T23:22:42.278Z,97819.00
2018-07-15T23:26:44.406Z,97816.00
2018-07-15T23:30:46.646Z,97807.00
2018-07-15T23:34:48.805Z,97804.00
2018-07-15T23:38:51.103Z,97803.00
2018-07-15T23:42:54.262Z,97803.00
2018-07-15T23:46:56.419Z,97799.00
2018-07-15T23:50:58.602Z,97801.00
2018-07-15T23:55:00.888Z,97800.00
2018-07-15T23:59:03.028Z,97815.00
